Latest Weather Observations for Century Mine

IDQ60801

Issued at 7:02 pm EST Tuesday 25 July 2017 (issued every 30 minutes, with the page automatically refreshed every 10 minutes)

About weather observations | Map of weather stations | Latest weather observations for QLD | Other Formats
Station Details ID: 029167 Name: CENTURY MINE Lat: -18.76 Lon: 138.71 Height: 126.8 m
Data from the previous 72 hours. | See also: Recent months at Century Mine
Date/Time
EST
Temp
°C
App
Temp
°C
Dew
Point
°C
Rel
Hum
%
Delta-T
°C
Wind Press
QNH
hPa
Press
MSL
hPa
Rain since
9am
mm
Dir  Spd
km/h
Gust
km/h
Spd
kts
Gust
kts
25/07:00pm 25.9 24.1 7.0 30 10.0 ESE 6 7 3 4 1015.4 1015.0 0.0
25/06:30pm 27.9 26.0 6.6 26 11.3 SE 6 7 3 4 1015.2 1014.8 0.0
25/06:00pm 29.8 27.9 7.7 25 12.1 ESE 7 15 4 8 1015.0 1014.6 0.0
25/05:30pm 30.8 29.0 7.9 24 12.6 SE 7 17 4 9 1014.9 1014.5 0.0
25/05:00pm 31.2 29.1 8.2 24 12.8 E 9 15 5 8 1014.7 1014.3 0.0
25/04:30pm 31.4 29.3 8.4 24 12.8 ENE 9 15 5 8 1014.7 1014.3 0.0
25/04:00pm 31.5 29.5 8.5 24 12.8 E 9 13 5 7 1014.6 1014.2 0.0
25/03:30pm 31.6 30.1 9.2 25 12.7 ESE 7 17 4 9 1014.7 1014.3 0.0
25/03:00pm 31.6 29.0 9.2 25 12.7 E 13 20 7 11 1014.9 1014.5 0.0
25/02:30pm 30.7 28.8 9.0 26 12.2 E 9 22 5 12 1015.3 1014.9 0.0
25/02:00pm 31.3 28.4 9.5 26 12.4 E 15 24 8 13 1015.7 1015.3 0.0
25/01:30pm 30.6 27.3 9.5 27 11.9 ENE 17 24 9 13 1016.1 1015.7 0.0
25/01:00pm 30.9 27.3 9.7 27 12.0 ENE 19 28 10 15 1016.6 1016.2 0.0
25/12:30pm 30.2 27.5 10.2 29 11.4 E 15 26 8 14 1017.1 1016.7 0.0
25/12:00pm 28.6 24.7 9.3 30 10.8 ENE 20 28 11 15 1017.6 1017.2 0.0
25/11:30am 28.7 25.3 10.4 32 10.4 ENE 19 28 10 15 1017.8 1017.4 0.0
25/11:00am 28.4 24.9 10.1 32 10.3 ENE 19 28 10 15 1018.2 1017.8 0.0
25/10:30am 27.2 23.9 9.5 33 9.8 E 17 28 9 15 1018.5 1018.2 0.0
25/10:00am 26.1 22.2 8.6 33 9.5 E 19 30 10 16 1018.6 1018.3 0.0
25/09:30am 25.2 21.6 6.9 31 9.6 E 15 22 8 12 1018.5 1018.2 0.0
25/09:00am 23.4 19.1 5.3 31 9.1 ESE 17 28 9 15 1018.2 1017.8 0.0
25/08:30am 20.1 18.6 5.0 37 7.4 E 2 7 1 4 1018.0 1017.6 0.0
25/08:00am 18.3 15.9 4.1 39 6.7 S 6 7 3 4 1017.6 1017.2 0.0
25/07:30am 17.7 14.6 3.6 39 6.6 S 9 15 5 8 1017.2 1016.8 0.0
25/07:00am 17.2 13.7 3.5 40 6.4 S 11 15 6 8 1017.0 1016.6 0.0
25/06:30am 17.6 14.0 3.1 38 6.7 SSW 11 15 6 8 1016.8 1016.4 0.0
25/06:00am 18.0 14.4 3.1 37 6.9 S 11 17 6 9 1016.6 1016.2 0.0
25/05:30am 17.8 14.2 2.9 37 6.9 S 11 13 6 7 1016.5 1016.1 0.0
25/05:00am 18.3 14.7 3.0 36 7.1 S 11 13 6 7 1016.4 1016.0 0.0
25/04:30am 17.9 14.6 2.6 36 7.0 SSW 9 11 5 6 1016.2 1015.8 0.0
25/04:00am 18.2 14.8 2.1 34 7.3 S 9 11 5 6 1016.2 1015.8 0.0
25/03:30am 18.1 14.7 2.0 34 7.3 S 9 13 5 7 1016.2 1015.8 0.0
25/03:00am 17.8 14.5 2.2 35 7.1 S 9 11 5 6 1016.3 1015.9 0.0
25/02:30am 18.2 15.2 4.0 39 6.7 S 9 13 5 7 1016.2 1015.8 0.0
25/02:00am 15.6 13.7 2.7 42 5.8 SSW 2 7 1 4 1016.1 1015.7 0.0
25/01:30am 15.9 12.6 2.7 41 6.0 SSW 9 9 5 5 1016.2 1015.8 0.0
25/01:00am 16.3 13.7 3.4 42 6.0 SSW 6 7 3 4 1016.3 1015.9 0.0
25/12:30am 16.4 13.2 2.8 40 6.2 SSW 9 9 5 5 1016.3 1015.9 0.0
25/12:00am 16.5 13.2 2.5 39 6.4 SW 9 11 5 6 1016.5 1016.1 0.0
 
Date/Time
EST
Temp
°C
App
Temp
°C
Dew
Point
°C
Rel
Hum
%
Delta-T
°C
Wind Press
QNH
hPa
Press
MSL
hPa
Rain since
9am
mm
Dir  Spd
km/h
Gust
km/h
Spd
kts
Gust
kts
24/11:30pm 16.7 13.7 2.0 37 6.6 SW 7 9 4 5 1016.6 1016.2 0.0
24/11:00pm 17.9 15.0 1.4 33 7.4 SSW 6 6 3 3 1016.7 1016.3 0.0
24/10:30pm 19.0 15.9 1.1 30 8.1 SSW 7 9 4 5 1016.6 1016.2 0.0
24/10:00pm 21.8 18.6 3.0 29 9.0 SSW 9 15 5 8 1016.5 1016.1 0.0
24/09:30pm 19.1 16.1 0.7 29 8.2 SSW 6 7 3 4 1016.3 1015.9 0.0
24/09:00pm 21.2 18.3 1.5 27 9.1 ESE 6 15 3 8 1016.0 1015.6 0.0
24/08:30pm 21.3 18.3 1.0 26 9.3 SSW 6 7 3 4 1015.7 1015.3 0.0
24/08:00pm 22.6 19.4 1.0 24 10.0 SSW 7 9 4 5 1015.4 1015.0 0.0
24/07:30pm 23.8 20.1 0.2 21 10.9 SSW 9 11 5 6 1015.0 1014.6 0.0
24/07:00pm 26.2 23.0 0.8 19 12.0 SSW 7 9 4 5 1014.8 1014.4 0.0
24/06:30pm 28.4 24.7 0.2 16 13.4 SSW 9 13 5 7 1014.3 1013.9 0.0
24/06:00pm 30.5 26.6 1.0 15 14.5 SSW 11 17 6 9 1013.9 1013.5 0.0
24/05:30pm 31.5 26.8 0.8 14 15.1 S 15 24 8 13 1013.6 1013.2 0.0
24/05:00pm 32.4 28.2 1.5 14 15.5 S 13 22 7 12 1013.4 1013.0 0.0
24/04:30pm 32.7 28.9 1.7 14 15.6 SSE 11 19 6 10 1013.3 1012.9 0.0
24/04:00pm 32.3 28.1 1.4 14 15.4 SSE 13 20 7 11 1013.3 1012.9 0.0
24/03:30pm 33.0 29.6 2.0 14 15.7 ESE 9 17 5 9 1013.3 1012.9 0.0
24/03:00pm 33.3 30.0 2.2 14 15.8 ESE 9 20 5 11 1013.6 1013.2 0.0
24/02:30pm 32.8 30.0 1.8 14 15.6 SSW 6 11 3 6 1014.0 1013.6 0.0
24/02:00pm 32.7 29.3 1.7 14 15.6 ENE 9 17 5 9 1014.6 1014.2 0.0
24/01:30pm 32.3 29.2 1.4 14 15.4 SE 7 17 4 9 1015.1 1014.7 0.0
24/01:00pm 32.1 28.6 1.3 14 15.3 E 9 17 5 9 1015.8 1015.4 0.0
24/12:30pm 30.7 26.4 1.1 15 14.6 SSE 13 20 7 11 1016.3 1015.9 0.0
24/12:00pm 29.9 26.7 3.0 18 13.6 SSE 9 19 5 10 1016.9 1016.5 0.0
24/11:30am 29.4 25.7 2.6 18 13.4 ESE 11 20 6 11 1017.4 1017.0 0.0
24/11:00am 27.5 22.9 1.8 19 12.5 ESE 15 24 8 13 1018.0 1017.6 0.0
24/10:30am 26.9 22.3 1.3 19 12.3 SE 15 22 8 12 1018.1 1017.7 0.0
24/10:00am 25.7 20.7 1.1 20 11.7 SE 17 28 9 15 1018.1 1017.7 0.0
24/09:30am 24.0 19.7 -1.8 18 11.5 SSE 11 15 6 8 1018.1 1017.7 0.0
24/09:00am 21.2 17.0 -4.0 18 10.4 S 9 15 5 8 1018.0 1017.6 0.0
24/08:30am 18.7 14.4 -4.7 20 9.3 S 9 15 5 8 1017.8 1017.4 0.0
24/08:00am 17.3 13.0 -5.2 21 8.7 S 9 15 5 8 1017.5 1017.1 0.0
24/07:30am 16.3 11.9 -5.4 22 8.3 S 9 11 5 6 1017.4 1017.0 0.0
24/07:00am 16.4 12.0 -6.0 21 8.5 S 9 13 5 7 1017.1 1016.7 0.0
24/06:30am 16.6 12.1 -6.4 20 8.7 S 9 13 5 7 1016.8 1016.4 0.0
24/06:00am 16.9 12.1 -6.2 20 8.7 S 11 15 6 8 1016.6 1016.2 0.0
24/05:30am 17.0 12.1 -6.8 19 8.9 S 11 13 6 7 1016.3 1015.9 0.0
24/05:00am 17.3 12.5 -6.5 19 9.0 S 11 15 6 8 1016.2 1015.8 0.0
24/04:30am 17.4 12.6 -6.4 19 9.0 SSW 11 13 6 7 1015.9 1015.5 0.0
24/04:00am 17.7 13.2 -6.9 18 9.3 SSW 9 13 5 7 1015.9 1015.5 0.0
24/03:30am 17.6 13.1 -7.0 18 9.2 S 9 13 5 7 1015.9 1015.5 0.0
24/03:00am 18.1 13.6 -7.3 17 9.5 S 9 11 5 6 1015.9 1015.5 0.0
24/02:30am 18.5 13.9 -7.8 16 9.8 S 9 11 5 6 1016.1 1015.7 0.0
24/02:00am 18.8 14.2 -7.5 16 9.9 S 9 11 5 6 1016.1 1015.7 0.0
24/01:30am 18.8 14.2 -7.5 16 9.9 S 9 13 5 7 1016.3 1015.9 0.0
24/01:00am 19.2 14.6 -8.0 15 10.2 S 9 13 5 7 1016.2 1015.8 0.0
24/12:30am 19.7 15.1 -7.6 15 10.4 S 9 13 5 7 1016.3 1015.9 0.0
24/12:00am 20.2 15.7 -7.2 15 10.5 S 9 13 5 7 1016.7 1016.3 0.0
 
Date/Time
EST
Temp
°C
App
Temp
°C
Dew
Point
°C
Rel
Hum
%
Delta-T
°C
Wind Press
QNH
hPa
Press
MSL
hPa
Rain since
9am
mm
Dir  Spd
km/h
Gust
km/h
Spd
kts
Gust
kts
23/11:30pm 20.5 15.9 -7.9 14 10.8 S 9 11 5 6 1016.7 1016.3 0.0
23/11:00pm 20.1 17.2 -8.2 14 10.7 CALM 0 6 0 3 1016.6 1016.2 0.0
23/10:30pm 21.7 17.1 -7.9 13 11.4 SSW 9 13 5 7 1016.7 1016.3 0.0
23/10:00pm 23.0 18.0 -7.9 12 12.1 SSW 11 17 6 9 1016.5 1016.1 0.0
23/09:30pm 23.7 18.4 -7.4 12 12.4 SSW 13 17 7 9 1016.3 1015.9 0.0
23/09:00pm 20.4 16.3 -3.3 20 9.9 SSW 9 11 5 6 1016.1 1015.7 0.0
23/08:30pm 20.1 15.9 -3.5 20 9.8 SSW 9 11 5 6 1015.8 1015.4 0.0
23/08:00pm 21.0 16.8 -3.5 19 10.2 SW 9 9 5 5 1015.6 1015.2 0.0
23/07:30pm 21.8 17.9 -4.3 17 10.8 SSW 7 7 4 4 1015.2 1014.8 0.0
23/07:00pm 23.6 19.7 -4.5 15 11.8 SSW 7 9 4 5 1014.8 1014.4 0.0
23/06:30pm 26.7 22.9 -4.0 13 13.4 SSW 7 7 4 4 1014.5 1014.1 0.0
23/06:00pm 29.2 25.3 -4.3 11 14.8 SSW 7 11 4 6 1014.3 1013.9 0.0
23/05:30pm 30.4 25.9 -3.3 11 15.3 SW 11 15 6 8 1014.1 1013.7 0.0
23/05:00pm 31.3 26.7 -3.9 10 16.0 WSW 11 17 6 9 1014.0 1013.6 0.0
23/04:30pm 31.6 27.8 -3.7 10 16.1 SW 7 13 4 7 1013.9 1013.5 0.0
23/04:00pm 31.7 27.2 -3.6 10 16.1 SW 11 24 6 13 1013.9 1013.5 0.0
23/03:30pm 31.7 27.5 -3.6 10 16.1 WSW 9 20 5 11 1014.1 1013.7 0.0
23/03:00pm 32.0 27.5 -3.4 10 16.3 SW 11 20 6 11 1014.3 1013.9 0.0
23/02:30pm 31.0 26.8 -4.1 10 15.8 S 9 19 5 10 1014.8 1014.4 0.0
23/02:00pm 30.4 26.5 -4.6 10 15.6 W 7 15 4 8 1015.2 1014.8 0.0
23/01:30pm 29.9 25.6 -5.0 10 15.3 S 9 19 5 10 1015.8 1015.4 0.0
23/01:00pm 29.7 25.0 -5.1 10 15.2 SSW 11 17 6 9 1016.4 1016.0 0.0
23/12:30pm 28.9 24.3 -4.5 11 14.7 S 11 19 6 10 1017.0 1016.6 0.0
23/12:00pm 28.9 24.6 -4.5 11 14.7 ESE 9 15 5 8 1017.6 1017.2 0.0
23/11:30am 27.5 23.6 -4.4 12 13.9 SSE 7 13 4 7 1018.0 1017.6 0.0
23/11:00am 26.6 22.4 -4.0 13 13.3 ESE 9 13 5 7 1018.3 1017.9 0.0
23/10:30am 25.4 21.6 -4.0 14 12.7 SSE 7 13 4 7 1018.4 1018.1 0.0
23/10:00am 23.5 19.2 -4.6 15 11.7 SSE 9 15 5 8 1018.7 1018.4 0.0
23/09:30am 21.3 17.1 -4.0 18 10.5 S 9 13 5 7 1018.7 1018.4 0.0
23/09:00am 19.4 14.8 -4.1 20 9.5 S 11 15 6 8 1018.5 1018.2 0.0
23/08:30am 17.6 13.4 -3.7 23 8.6 S 9 15 5 8 1018.2 1017.8 0.0
23/08:00am 15.9 11.4 -3.6 26 7.7 SSW 11 15 6 8 1018.1 1017.7 0.0
23/07:30am 14.3 10.6 -4.4 27 7.2 SSW 6 7 3 4 1017.9 1017.5 0.0
23/07:00am 14.8 10.9 -5.0 25 7.5 S 7 11 4 6 1017.6 1017.2 0.0
23/06:30am 15.1 10.4 -4.8 25 7.6 S 11 17 6 9 1017.1 1016.7 0.0
23/06:00am 15.5 10.4 -5.0 24 7.8 S 13 20 7 11 1017.0 1016.6 0.0
23/05:30am 15.6 10.5 -4.9 24 7.9 S 13 19 7 10 1016.9 1016.5 0.0
23/05:00am 15.9 10.8 -5.2 23 8.1 S 13 17 7 9 1016.8 1016.4 0.0
23/04:30am 16.2 11.1 -5.5 22 8.3 S 13 19 7 10 1016.8 1016.4 0.0
23/04:00am 16.2 11.5 -4.9 23 8.2 S 11 15 6 8 1016.8 1016.4 0.0
23/03:30am 15.7 11.4 -5.3 23 8.0 S 9 11 5 6 1017.0 1016.6 0.0
23/03:00am 16.6 12.2 -5.8 21 8.5 S 9 15 5 8 1017.1 1016.7 0.0
23/02:30am 17.3 12.9 -5.8 20 8.9 S 9 15 5 8 1017.2 1016.8 0.0
23/02:00am 18.1 13.7 -5.9 19 9.3 SSE 9 15 5 8 1017.2 1016.8 0.0
23/01:30am 18.7 14.3 -6.1 18 9.6 SSE 9 15 5 8 1017.1 1016.7 0.0
23/01:00am 19.2 14.7 -6.4 17 9.9 S 9 17 5 9 1017.0 1016.6 0.0
23/12:30am 19.8 15.2 -7.5 15 10.4 S 9 20 5 11 1017.1 1016.7 0.0
23/12:00am 20.4 15.5 -7.1 15 10.6 S 11 19 6 10 1017.1 1016.7 0.0
 
Date/Time
EST
Temp
°C
App
Temp
°C
Dew
Point
°C
Rel
Hum
%
Delta-T
°C
Wind Press
QNH
hPa
Press
MSL
hPa
Rain since
9am
mm
Dir  Spd
km/h
Gust
km/h
Spd
kts
Gust
kts
22/11:30pm 20.5 15.5 -7.9 14 10.8 S 11 19 6 10 1017.5 1017.1 0.0
22/11:00pm 21.2 15.8 -8.3 13 11.2 SSW 13 22 7 12 1017.5 1017.1 0.0
22/10:30pm 21.6 16.6 -8.0 13 11.4 SSW 11 15 6 8 1017.6 1017.2 0.0
22/10:00pm 22.0 17.3 -8.7 12 11.7 SSW 9 13 5 7 1017.4 1017.0 0.0
22/09:30pm 22.8 17.9 -7.0 13 11.8 SSW 11 19 6 10 1017.1 1016.7 0.0
22/09:20pm 22.9 18.0 -6.9 13 11.9 SSW 11 17 6 9 1017.0 1016.6 0.0
22/09:00pm 17.9 13.6 -4.7 21 8.9 SW 9 11 5 6 1016.8 1016.4 0.0
22/08:30pm 18.9 14.6 -4.5 20 9.4 SW 9 9 5 5 1016.5 1016.1 0.0
22/08:00pm 19.6 15.7 -4.6 19 9.8 SSW 7 9 4 5 1016.1 1015.7 0.0
22/07:30pm 20.0 16.0 -5.8 17 10.2 SW 7 9 4 5 1015.6 1015.2 0.0

Other Formats:

Comma delimited format used in spreadsheet applications
http://www.bom.gov.au/fwo/IDQ60801/IDQ60801.94261.axf

JavaScript Object Notation format (JSON) in row-major order
http://www.bom.gov.au/fwo/IDQ60801/IDQ60801.94261.json